Sarbogard, Hungary
Current Conditions -  °F | °C
As of 6:30 PM on Friday 31 Oct 2014 (Local Time) from LHBP Reporting Station
Clear Clear  
Wind Chill: 39°   Ceiling: Unl
Heat Index: 43°   Visibility: 4mi
Dew Point: 37°   Wind: 7mph
Humidity: 81%   Direction: 330°NNW
Pressure: 30.33"   Gusts: NA
Location:  46.89°N, 18.63°E
Report Text: LHBP 311630Z 33006KT 6000 NSC 06/03 Q1027 NOSIG
Loading
Personal Weather Stations






























Interactive Weather Map
Tropical Storm Tracking
New forecast layout! Learn more

10-Day Weather Forecast

Advertisements
Track Severe Weather on mobile